Santa Elena, Texas
Current Conditions -  °F | °C
As of 4:15 PM on Sunday 21 Dec 2014 (Local Time) from KEBG Reporting Station
Overcast Overcast  
Wind Chill: 18°   Ceiling: 1300
Heat Index: 18°   Visibility: 10mi
Dew Point: 14°   Wind: 3mph
Humidity: 77%   Direction: 20°NNE
Pressure: 29.95"   Gusts: NA
Location:  26.76°N, 98.49°W
Report Text: KEBG 212215Z AUTO 02003KT 10SM OVC013 18/14 A2995 RMK AO2 T01760136
Loading
Personal Weather Stations






























Interactive Weather Map New forecast layout! Learn more

10-Day Weather Forecast

Advertisements
Track Severe Weather on mobile